createdAt,value
2017-05-24T00:01:48.495Z,0.88
2017-05-24T00:04:23.784Z,2.12
2017-05-24T00:06:59.056Z,1.60
2017-05-24T00:09:34.382Z,3.30
2017-05-24T00:12:09.637Z,2.58
2017-05-24T00:14:44.917Z,2.87
2017-05-24T00:17:20.166Z,1.23
2017-05-24T00:19:55.593Z,2.32
2017-05-24T00:22:30.778Z,1.20
2017-05-24T00:25:06.092Z,3.53
2017-05-24T00:27:41.287Z,3.63
2017-05-24T00:30:16.510Z,3.87
2017-05-24T00:32:51.791Z,2.33
2017-05-24T00:35:27.278Z,4.23
2017-05-24T00:38:02.545Z,2.65
2017-05-24T00:40:38.090Z,2.02
2017-05-24T00:43:13.342Z,2.28
2017-05-24T00:45:48.617Z,2.42
2017-05-24T00:48:23.914Z,1.40
2017-05-24T00:50:59.435Z,2.65
2017-05-24T00:53:34.656Z,2.57
2017-05-24T00:56:09.967Z,1.85
2017-05-24T00:58:45.238Z,3.25
2017-05-24T01:01:20.689Z,2.97
2017-05-24T01:03:55.795Z,2.27
2017-05-24T01:06:32.125Z,2.50
2017-05-24T01:09:09.142Z,3.38
2017-05-24T01:11:44.718Z,1.63
2017-05-24T01:14:20.021Z,3.30
2017-05-24T01:16:55.358Z,2.80
2017-05-24T01:19:30.589Z,2.48
2017-05-24T01:22:05.979Z,2.03
2017-05-24T01:24:41.227Z,2.63
2017-05-24T01:27:16.761Z,2.92
2017-05-24T01:29:52.024Z,2.52
2017-05-24T01:32:27.430Z,2.23
2017-05-24T01:35:02.673Z,2.23
2017-05-24T01:37:37.923Z,3.07
2017-05-24T01:40:13.106Z,1.18
2017-05-24T01:42:48.412Z,2.13
2017-05-24T01:45:23.619Z,3.17
2017-05-24T01:47:59.184Z,2.55
2017-05-24T01:50:34.398Z,3.42
2017-05-24T01:53:09.678Z,1.08
2017-05-24T01:55:44.925Z,3.48
2017-05-24T01:58:20.222Z,2.57
2017-05-24T02:00:55.510Z,2.72
2017-05-24T02:03:31.022Z,2.98
2017-05-24T02:06:06.174Z,0.95
2017-05-24T02:08:41.422Z,1.87
2017-05-24T02:11:16.603Z,2.87
2017-05-24T02:13:51.992Z,2.03
2017-05-24T02:16:27.233Z,2.42
2017-05-24T02:19:02.525Z,2.17
2017-05-24T02:21:37.821Z,3.72
2017-05-24T02:24:13.114Z,2.32
2017-05-24T02:26:48.350Z,2.13
2017-05-24T02:29:23.687Z,3.45
2017-05-24T02:31:58.982Z,2.42
2017-05-24T02:34:34.415Z,2.65
2017-05-24T02:37:09.633Z,1.68
2017-05-24T02:39:44.910Z,2.58
2017-05-24T02:42:20.194Z,2.42
2017-05-24T02:44:55.553Z,2.80
2017-05-24T02:47:30.747Z,2.18
2017-05-24T02:50:06.128Z,2.75
2017-05-24T02:52:41.407Z,3.30
2017-05-24T02:55:17.069Z,3.05
2017-05-24T02:57:52.334Z,3.17
2017-05-24T03:00:27.807Z,3.32
2017-05-24T03:03:03.087Z,2.12
2017-05-24T03:05:38.584Z,2.75
2017-05-24T03:08:13.737Z,3.35
2017-05-24T03:10:49.025Z,3.18
2017-05-24T03:13:24.272Z,1.57
2017-05-24T03:15:59.566Z,2.65
2017-05-24T03:18:34.817Z,2.43
2017-05-24T03:21:10.078Z,2.32
2017-05-24T03:23:45.357Z,2.88
2017-05-24T03:26:20.630Z,2.43
2017-05-24T03:28:56.009Z,2.05
2017-05-24T03:31:31.501Z,2.32
2017-05-24T03:34:06.737Z,1.85
2017-05-24T03:36:42.053Z,2.77
2017-05-24T03:39:17.303Z,2.43
2017-05-24T03:41:52.597Z,2.28
2017-05-24T03:44:27.901Z,1.67
2017-05-24T03:47:03.321Z,2.32
2017-05-24T03:49:38.552Z,2.70
2017-05-24T03:52:13.872Z,1.98
2017-05-24T03:54:49.143Z,1.77
2017-05-24T03:57:24.709Z,1.37
2017-05-24T03:59:59.865Z,2.33
2017-05-24T04:02:35.244Z,0.87
2017-05-24T04:05:10.558Z,1.33
2017-05-24T04:07:45.832Z,1.23
2017-05-24T04:10:21.036Z,1.08
2017-05-24T04:12:56.645Z,1.87
2017-05-24T04:15:31.898Z,2.55
2017-05-24T04:18:07.174Z,3.97
2017-05-24T04:20:42.496Z,3.10
2017-05-24T04:23:17.891Z,2.70
2017-05-24T04:25:53.156Z,2.03
2017-05-24T04:28:28.421Z,3.03
2017-05-24T04:31:03.650Z,2.53
2017-05-24T04:33:39.264Z,2.32
2017-05-24T04:36:14.485Z,2.35
2017-05-24T04:38:49.820Z,2.10
2017-05-24T04:41:25.077Z,2.42
2017-05-24T04:44:00.413Z,2.20
2017-05-24T04:46:35.744Z,2.78
2017-05-24T04:49:11.267Z,2.77
2017-05-24T04:51:46.577Z,2.73
2017-05-24T04:54:22.103Z,2.70
2017-05-24T04:56:57.415Z,1.03
2017-05-24T04:59:32.757Z,2.03
2017-05-24T05:02:08.145Z,3.62
2017-05-24T05:04:43.660Z,1.52
2017-05-24T05:07:18.915Z,2.70
2017-05-24T05:09:54.335Z,2.05
2017-05-24T05:12:29.504Z,3.07
2017-05-24T05:15:04.829Z,3.25
2017-05-24T05:17:40.176Z,2.62
2017-05-24T05:20:15.699Z,2.62
2017-05-24T05:22:51.023Z,2.85
2017-05-24T05:25:27.046Z,2.57
2017-05-24T05:28:02.898Z,2.78
2017-05-24T05:30:38.346Z,3.32
2017-05-24T05:33:13.586Z,3.18
2017-05-24T05:35:49.074Z,1.73
2017-05-24T05:38:24.342Z,2.73
2017-05-24T05:40:59.802Z,2.53
2017-05-24T05:43:34.946Z,1.47
2017-05-24T05:46:10.156Z,3.32
2017-05-24T05:48:46.665Z,2.08
2017-05-24T05:51:22.008Z,1.77
2017-05-24T05:53:57.227Z,1.90
2017-05-24T05:56:32.801Z,1.88
2017-05-24T05:59:08.116Z,2.15
2017-05-24T06:01:43.808Z,2.60
2017-05-24T06:04:19.092Z,2.43
2017-05-24T06:07:00.653Z,2.17
2017-05-24T06:09:43.851Z,1.27
2017-05-24T06:12:27.839Z,2.20
2017-05-24T06:15:11.266Z,3.90
2017-05-24T06:20:43.610Z,2.27
2017-05-24T06:23:25.486Z,2.75
2017-05-24T06:26:10.768Z,2.10
2017-05-24T06:28:55.832Z,1.52
2017-05-24T06:31:39.498Z,1.88
2017-05-24T06:34:23.487Z,2.68
2017-05-24T06:37:08.928Z,1.78
2017-05-24T06:39:52.801Z,2.63
2017-05-24T06:42:36.260Z,1.92
2017-05-24T06:45:19.822Z,1.77
2017-05-24T06:48:04.315Z,2.10
2017-05-24T06:50:45.909Z,2.67
2017-05-24T06:53:26.834Z,1.40
2017-05-24T06:56:03.827Z,1.60
2017-05-24T06:58:39.218Z,3.02
2017-05-24T07:01:15.531Z,2.82
2017-05-24T07:03:50.988Z,1.48
2017-05-24T07:06:26.235Z,1.78
2017-05-24T07:09:01.769Z,1.22
2017-05-24T07:11:37.067Z,1.50
2017-05-24T07:14:12.495Z,1.75
2017-05-24T07:16:47.747Z,1.50
2017-05-24T07:19:23.335Z,2.18
2017-05-24T07:21:58.581Z,1.23
2017-05-24T07:24:33.913Z,2.15
2017-05-24T07:27:09.136Z,2.18
2017-05-24T07:29:44.698Z,1.72
2017-05-24T07:32:19.992Z,1.28
2017-05-24T07:34:55.349Z,1.47
2017-05-24T07:37:30.805Z,1.38
2017-05-24T07:40:06.030Z,2.12
2017-05-24T07:42:41.320Z,1.62
2017-05-24T07:45:16.603Z,1.30
2017-05-24T07:47:51.789Z,1.65
2017-05-24T07:50:27.181Z,0.92
2017-05-24T07:53:02.479Z,1.42
2017-05-24T07:55:37.884Z,1.38
2017-05-24T07:58:13.170Z,1.27
2017-05-24T08:00:48.696Z,1.75
2017-05-24T08:03:23.889Z,1.12
2017-05-24T08:05:59.224Z,1.72
2017-05-24T08:08:34.530Z,1.30
2017-05-24T08:11:09.877Z,1.32
2017-05-24T08:13:45.079Z,0.97
2017-05-24T08:16:20.661Z,1.47
2017-05-24T08:18:56.043Z,1.53
2017-05-24T08:21:31.752Z,1.87
2017-05-24T08:24:06.984Z,1.08
2017-05-24T08:26:42.375Z,1.88
2017-05-24T08:29:17.546Z,1.88
2017-05-24T08:31:52.897Z,1.60
2017-05-24T08:34:28.253Z,1.57
2017-05-24T08:37:03.426Z,1.20
2017-05-24T08:39:38.706Z,0.90
2017-05-24T08:42:14.124Z,2.30
2017-05-24T08:44:49.386Z,1.05
2017-05-24T08:47:24.720Z,1.37
2017-05-24T08:50:00.501Z,0.98
2017-05-24T08:52:35.885Z,1.48
2017-05-24T08:55:11.061Z,1.35
2017-05-24T08:57:46.486Z,1.55
2017-05-24T09:00:21.690Z,1.42
2017-05-24T09:02:57.345Z,1.88
2017-05-24T09:05:32.591Z,1.25
2017-05-24T09:08:08.213Z,1.73
2017-05-24T09:10:43.687Z,1.58
2017-05-24T09:13:19.237Z,2.33
2017-05-24T09:15:54.551Z,1.67
2017-05-24T09:18:29.942Z,2.25
2017-05-24T09:21:05.151Z,1.43
2017-05-24T09:23:40.832Z,1.60
2017-05-24T09:26:16.094Z,1.55
2017-05-24T09:28:51.307Z,1.38
2017-05-24T09:31:26.665Z,1.93
2017-05-24T09:34:02.197Z,1.00
2017-05-24T09:36:37.356Z,1.48
2017-05-24T09:39:12.655Z,1.02
2017-05-24T09:41:47.978Z,1.48
2017-05-24T09:44:23.525Z,1.27
2017-05-24T09:46:58.758Z,1.50
2017-05-24T09:49:34.038Z,1.50
2017-05-24T09:52:09.337Z,1.47
2017-05-24T09:54:44.751Z,1.13
2017-05-24T09:57:20.123Z,0.93
2017-05-24T09:59:55.602Z,1.10
2017-05-24T10:02:30.800Z,1.02
2017-05-24T10:05:05.979Z,0.80
2017-05-24T10:07:41.226Z,1.52
2017-05-24T10:10:16.624Z,1.65
2017-05-24T10:12:52.015Z,1.68
2017-05-24T10:15:27.289Z,1.48
2017-05-24T10:18:02.497Z,1.00
2017-05-24T10:20:37.694Z,1.70
2017-05-24T10:23:13.027Z,1.30
2017-05-24T10:25:48.353Z,1.00
2017-05-24T10:28:23.670Z,1.28
2017-05-24T10:30:58.954Z,1.12
2017-05-24T10:33:34.144Z,1.23
2017-05-24T10:36:09.306Z,1.10
2017-05-24T10:38:50.569Z,1.62
2017-05-24T10:41:31.719Z,1.03
2017-05-24T10:44:09.838Z,1.38
2017-05-24T10:46:47.063Z,1.58
2017-05-24T10:49:26.380Z,1.80
2017-05-24T10:52:01.721Z,1.33
2017-05-24T10:54:36.885Z,2.07
2017-05-24T10:57:12.679Z,1.30
2017-05-24T10:59:47.961Z,1.50
2017-05-24T11:02:23.204Z,1.30
2017-05-24T11:04:58.629Z,1.00
2017-05-24T11:07:34.205Z,1.02
2017-05-24T11:10:09.538Z,1.02
2017-05-24T11:12:44.727Z,0.92
2017-05-24T11:15:20.138Z,1.50
2017-05-24T11:17:55.582Z,0.72
2017-05-24T11:20:30.907Z,1.28
2017-05-24T11:23:06.266Z,1.43
2017-05-24T11:25:42.307Z,2.02
2017-05-24T11:28:17.693Z,1.78
2017-05-24T11:30:55.359Z,1.10
2017-05-24T11:33:31.855Z,2.35
2017-05-24T11:36:08.013Z,1.93
2017-05-24T11:38:43.310Z,1.97
2017-05-24T11:41:18.680Z,1.70
2017-05-24T11:43:54.032Z,2.37
2017-05-24T11:46:29.377Z,1.80
2017-05-24T11:49:04.674Z,1.40
2017-05-24T11:51:40.327Z,3.62
2017-05-24T11:54:15.533Z,1.85
2017-05-24T11:56:50.950Z,1.70
2017-05-24T11:59:26.185Z,1.65
2017-05-24T12:02:01.484Z,2.38
2017-05-24T12:04:36.663Z,1.38
2017-05-24T12:07:12.025Z,1.82
2017-05-24T12:09:47.287Z,1.83
2017-05-24T12:12:22.694Z,1.40
2017-05-24T12:14:58.062Z,1.22
2017-05-24T12:17:33.561Z,1.97
2017-05-24T12:20:08.950Z,2.37
2017-05-24T12:22:44.456Z,2.27
2017-05-24T12:25:19.675Z,1.05
2017-05-24T12:27:55.206Z,1.53
2017-05-24T12:30:34.874Z,1.93
2017-05-24T12:33:11.183Z,1.68
2017-05-24T12:35:46.699Z,1.70
2017-05-24T12:38:22.303Z,0.93
2017-05-24T12:40:57.442Z,1.75
2017-05-24T12:43:32.906Z,2.03
2017-05-24T12:46:08.136Z,1.15
2017-05-24T12:48:43.684Z,0.65
2017-05-24T12:51:18.938Z,0.82
2017-05-24T12:53:54.457Z,1.30
2017-05-24T12:56:29.785Z,1.18
2017-05-24T12:59:05.319Z,1.35
2017-05-24T13:01:40.581Z,1.70
2017-05-24T13:04:16.061Z,0.92
2017-05-24T13:06:51.406Z,1.57
2017-05-24T13:09:26.798Z,1.53
2017-05-24T13:12:01.978Z,1.65
2017-05-24T13:14:37.195Z,1.32
2017-05-24T13:17:12.536Z,0.95
2017-05-24T13:19:47.892Z,1.52
2017-05-24T13:22:23.133Z,1.62
2017-05-24T13:24:58.415Z,1.60
2017-05-24T13:27:33.790Z,1.62
2017-05-24T13:30:09.501Z,1.30
2017-05-24T13:32:45.095Z,2.28
2017-05-24T13:35:20.630Z,1.62
2017-05-24T13:37:55.919Z,1.60
2017-05-24T13:40:31.267Z,2.05
2017-05-24T13:43:06.621Z,1.73
2017-05-24T13:45:42.037Z,1.63
2017-05-24T13:48:17.372Z,1.70
2017-05-24T13:50:52.802Z,2.80
2017-05-24T13:53:28.041Z,1.28
2017-05-24T13:56:03.422Z,1.95
2017-05-24T13:58:38.750Z,1.63
2017-05-24T14:01:14.191Z,2.05
2017-05-24T14:03:50.449Z,1.72
2017-05-24T14:06:25.922Z,1.42
2017-05-24T14:09:01.267Z,2.15
2017-05-24T14:11:36.828Z,2.03
2017-05-24T14:14:12.266Z,1.77
2017-05-24T14:16:47.483Z,2.17
2017-05-24T14:19:22.946Z,2.32
2017-05-24T14:21:58.354Z,2.02
2017-05-24T14:24:33.712Z,3.68
2017-05-24T14:27:09.298Z,2.15
2017-05-24T14:29:44.514Z,1.68
2017-05-24T14:32:19.902Z,1.20
2017-05-24T14:34:56.062Z,2.17
2017-05-24T14:37:31.595Z,2.27
2017-05-24T14:40:07.824Z,2.48
2017-05-24T14:42:44.466Z,1.98
2017-05-24T14:45:20.651Z,2.02
2017-05-24T14:47:56.354Z,2.15
2017-05-24T14:50:31.575Z,0.97
2017-05-24T14:53:07.234Z,1.65
2017-05-24T14:55:43.214Z,1.30
2017-05-24T14:58:19.258Z,1.78
2017-05-24T15:00:54.827Z,2.38
2017-05-24T15:03:31.215Z,1.50
2017-05-24T15:06:07.322Z,1.58
2017-05-24T15:08:43.040Z,1.40
2017-05-24T15:11:18.259Z,1.63
2017-05-24T15:13:53.925Z,2.10
2017-05-24T15:16:29.397Z,1.38
2017-05-24T15:19:04.707Z,1.02
2017-05-24T15:21:40.106Z,1.90
2017-05-24T15:24:15.659Z,2.15
2017-05-24T15:26:50.822Z,1.72
2017-05-24T15:29:26.510Z,2.28
2017-05-24T15:32:01.727Z,2.62
2017-05-24T15:34:37.157Z,2.52
2017-05-24T15:37:12.408Z,1.27
2017-05-24T15:39:48.685Z,1.73
2017-05-24T15:42:23.925Z,2.37
2017-05-24T15:44:59.248Z,1.60
2017-05-24T15:47:34.520Z,1.23
2017-05-24T15:50:09.913Z,2.47
2017-05-24T15:52:45.207Z,2.43
2017-05-24T15:55:20.454Z,2.12
2017-05-24T15:57:55.779Z,2.12
2017-05-24T16:00:31.127Z,1.98
2017-05-24T16:03:06.352Z,1.68
2017-05-24T16:05:42.014Z,1.92
2017-05-24T16:08:17.343Z,2.00
2017-05-24T16:11:03.808Z,1.97
2017-05-24T16:16:42.414Z,1.50
2017-05-24T16:19:21.142Z,1.65
2017-05-24T16:21:56.575Z,1.62
2017-05-24T16:24:32.123Z,2.02
2017-05-24T16:27:07.572Z,2.27
2017-05-24T16:29:42.773Z,2.88
2017-05-24T16:32:18.050Z,2.45
2017-05-24T16:34:53.344Z,2.03
2017-05-24T16:37:28.742Z,1.32
2017-05-24T16:40:04.213Z,1.75
2017-05-24T16:42:39.459Z,1.48
2017-05-24T16:45:14.684Z,2.00
2017-05-24T16:47:49.977Z,1.53
2017-05-24T16:50:30.659Z,2.08
2017-05-24T16:53:13.471Z,1.43
2017-05-24T16:55:55.746Z,1.77
2017-05-24T16:58:36.171Z,1.32
2017-05-24T17:01:12.636Z,1.98
2017-05-24T17:03:47.955Z,2.15
2017-05-24T17:06:27.746Z,2.08
2017-05-24T17:09:08.423Z,1.50
2017-05-24T17:11:49.999Z,2.68
2017-05-24T17:14:31.388Z,2.38
2017-05-24T17:17:07.707Z,1.88
2017-05-24T17:19:44.426Z,2.18
2017-05-24T17:22:19.675Z,2.20
2017-05-24T17:24:55.172Z,1.55
2017-05-24T17:27:30.519Z,1.68
2017-05-24T17:30:07.287Z,2.55
2017-05-24T17:32:42.582Z,2.20
2017-05-24T17:35:18.054Z,3.32
2017-05-24T17:37:53.327Z,2.43
2017-05-24T17:43:10.307Z,1.92
2017-05-24T17:45:45.675Z,2.17
2017-05-24T17:48:20.948Z,2.08
2017-05-24T17:50:56.419Z,2.25
2017-05-24T17:53:31.802Z,3.63
2017-05-24T17:56:07.221Z,1.45
2017-05-24T17:58:42.578Z,2.78
2017-05-24T18:01:17.867Z,2.85
2017-05-24T18:03:53.203Z,2.73
2017-05-24T18:06:28.561Z,2.12
2017-05-24T18:09:04.031Z,2.53
2017-05-24T18:11:39.332Z,2.58
2017-05-24T18:14:14.698Z,3.02
2017-05-24T18:16:49.927Z,2.20
2017-05-24T18:19:25.262Z,2.70
2017-05-24T18:22:00.469Z,2.00
2017-05-24T18:24:35.754Z,2.43
2017-05-24T18:27:10.954Z,2.70
2017-05-24T18:29:46.247Z,3.02
2017-05-24T18:32:21.546Z,2.55
2017-05-24T18:34:57.971Z,3.25
2017-05-24T18:37:33.289Z,2.33
2017-05-24T18:40:08.661Z,2.77
2017-05-24T18:42:43.967Z,3.00
2017-05-24T18:45:19.278Z,2.60
2017-05-24T18:47:54.546Z,1.73
2017-05-24T18:50:30.348Z,2.97
2017-05-24T18:53:05.697Z,4.73
2017-05-24T18:55:41.103Z,3.22
2017-05-24T18:58:16.418Z,3.53
2017-05-24T19:00:52.002Z,2.97
2017-05-24T19:03:27.288Z,3.37
2017-05-24T19:06:02.710Z,3.87
2017-05-24T19:08:38.984Z,3.98
2017-05-24T19:11:14.367Z,3.58
2017-05-24T19:13:49.675Z,3.72
2017-05-24T19:16:24.955Z,3.47
2017-05-24T19:19:00.271Z,3.12
2017-05-24T19:21:35.667Z,3.70
2017-05-24T19:24:10.914Z,3.73
2017-05-24T19:26:46.149Z,3.90
2017-05-24T19:29:21.503Z,3.87
2017-05-24T19:31:57.143Z,3.83
2017-05-24T19:34:32.379Z,4.02
2017-05-24T19:37:08.111Z,4.03
2017-05-24T19:39:43.386Z,4.12
2017-05-24T19:42:18.800Z,4.27
2017-05-24T19:44:54.187Z,3.58
2017-05-24T19:47:29.626Z,4.20
2017-05-24T19:50:05.062Z,3.95
2017-05-24T19:52:40.414Z,3.77
2017-05-24T19:55:19.114Z,3.65
2017-05-24T19:57:55.206Z,4.13
2017-05-24T20:00:30.807Z,4.35
2017-05-24T20:03:06.046Z,4.67
2017-05-24T20:05:41.265Z,4.37
2017-05-24T20:08:16.530Z,4.23
2017-05-24T20:10:51.765Z,4.02
2017-05-24T20:13:27.051Z,4.42
2017-05-24T20:16:02.326Z,4.80
2017-05-24T20:18:38.450Z,5.07
2017-05-24T20:21:14.183Z,6.63
2017-05-24T20:23:49.545Z,6.13
2017-05-24T20:26:33.600Z,4.50
2017-05-24T20:29:13.179Z,4.97
2017-05-24T20:31:48.919Z,4.60
2017-05-24T20:34:24.373Z,5.30
2017-05-24T20:37:00.365Z,5.83
2017-05-24T20:39:35.586Z,5.85
2017-05-24T20:42:10.934Z,6.15
2017-05-24T20:44:46.424Z,5.17
2017-05-24T20:47:21.693Z,5.67
2017-05-24T20:49:56.980Z,5.65
2017-05-24T20:52:32.314Z,5.37
2017-05-24T20:55:18.570Z,5.68
2017-05-24T20:57:55.662Z,5.45
2017-05-24T21:00:30.917Z,5.70
2017-05-24T21:03:06.224Z,7.05
2017-05-24T21:05:42.349Z,6.53
2017-05-24T21:08:17.514Z,6.20
2017-05-24T21:10:52.831Z,5.58
2017-05-24T21:13:29.248Z,5.92
2017-05-24T21:16:04.566Z,5.98
2017-05-24T21:18:39.839Z,5.77
2017-05-24T21:21:15.141Z,5.92
2017-05-24T21:23:50.423Z,6.03
2017-05-24T21:26:25.795Z,5.70
2017-05-24T21:29:01.033Z,5.85
2017-05-24T21:31:36.339Z,7.17
2017-05-24T21:34:11.607Z,6.47
2017-05-24T21:36:46.926Z,6.33
2017-05-24T21:39:22.082Z,7.03
2017-05-24T21:41:57.624Z,7.07
2017-05-24T21:44:32.919Z,5.98
2017-05-24T21:47:08.177Z,6.35
2017-05-24T21:49:43.390Z,6.72
2017-05-24T21:52:18.718Z,7.90
2017-05-24T21:54:54.638Z,7.43
2017-05-24T21:57:30.364Z,7.68
2017-05-24T22:00:05.669Z,6.75
2017-05-24T22:02:41.039Z,7.83
2017-05-24T22:05:27.057Z,7.62
2017-05-24T22:08:05.997Z,6.92
2017-05-24T22:10:41.649Z,8.93
2017-05-24T22:13:26.446Z,8.33
2017-05-24T22:16:10.039Z,7.45
2017-05-24T22:18:54.323Z,8.45
2017-05-24T22:21:39.265Z,8.88
2017-05-24T22:24:25.422Z,7.60
2017-05-24T22:27:10.185Z,9.23
2017-05-24T22:29:54.822Z,8.73
2017-05-24T22:32:41.305Z,9.10
2017-05-24T22:35:25.066Z,7.53
2017-05-24T22:38:07.700Z,8.03
2017-05-24T22:40:54.384Z,8.95
2017-05-24T22:43:38.181Z,7.18
2017-05-24T22:46:19.367Z,8.27
2017-05-24T22:49:00.636Z,8.03
2017-05-24T22:51:41.828Z,7.77
2017-05-24T22:54:23.839Z,7.68
2017-05-24T22:57:06.101Z,5.72
2017-05-24T22:59:45.893Z,7.47
2017-05-24T23:02:28.778Z,7.72
2017-05-24T23:05:09.639Z,7.48
2017-05-24T23:07:51.704Z,7.77
2017-05-24T23:10:32.726Z,7.37
2017-05-24T23:13:14.201Z,8.03
2017-05-24T23:15:56.279Z,8.28
2017-05-24T23:18:37.851Z,8.92
2017-05-24T23:21:19.880Z,7.73
2017-05-24T23:24:00.620Z,8.70
2017-05-24T23:26:36.229Z,9.55
2017-05-24T23:29:11.526Z,8.55
2017-05-24T23:31:47.177Z,8.27
2017-05-24T23:34:22.594Z,8.07
2017-05-24T23:37:01.896Z,8.15
2017-05-24T23:39:39.128Z,8.73
2017-05-24T23:42:21.176Z,9.23
2017-05-24T23:45:04.521Z,9.95
2017-05-24T23:47:48.113Z,10.95
2017-05-24T23:50:28.472Z,9.98
2017-05-24T23:53:09.603Z,9.15
2017-05-24T23:55:51.062Z,10.65
2017-05-24T23:58:33.448Z,10.23
